Time;durP1;ratioP1;P1;durP2;ratioP2;P2;SDS_P1;SDS_P2;PMS_P1;PMS_P2;Temp;Humidity;BMP_temperature;BMP_pressure;BME280_temperature;BME280_humidity;BME280_pressure;Samples;Min_cycle;Max_cycle;Signal;HPM_P1;HPM_P2
2021/11/18 00:00:53;;;;;;;2.60;1.23;;;21.70;52.20;;;;;;5029525;28;20048;-55
2021/11/18 00:03:22;;;;;;;2.67;1.17;;;21.60;52.10;;;;;;5036949;28;20080;-59
2021/11/18 00:05:48;;;;;;;4.28;1.40;;;21.60;52.20;;;;;;5040640;28;20119;-58
2021/11/18 00:08:14;;;;;;;3.70;1.45;;;21.60;52.20;;;;;;5038109;28;20106;-60
2021/11/18 00:11:09;;;;;;;1.73;1.00;;;21.60;52.20;;;;;;5030419;28;20411;-61
2021/11/18 00:13:42;;;;;;;2.72;1.40;;;21.60;52.20;;;;;;5041521;28;20055;-59
2021/11/18 00:16:08;;;;;;;3.38;1.35;;;21.50;52.20;;;;;;5038449;28;20033;-61
2021/11/18 00:18:36;;;;;;;2.70;1.30;;;21.60;52.30;;;;;;5043350;28;20095;-59
2021/11/18 00:21:12;;;;;;;3.42;1.60;;;21.50;52.20;;;;;;5035126;28;20029;-61
2021/11/18 00:23:41;;;;;;;4.57;1.00;;;21.50;52.30;;;;;;5038917;28;20183;-60
2021/11/18 00:26:08;;;;;;;3.42;1.27;;;21.50;52.20;;;;;;5036755;28;20072;-57
2021/11/18 00:28:34;;;;;;;2.88;1.20;;;21.50;52.30;;;;;;5038436;28;20865;-60
2021/11/18 00:31:00;;;;;;;3.28;1.40;;;21.50;52.30;;;;;;5036488;28;20154;-60
2021/11/18 00:33:26;;;;;;;2.78;1.10;;;21.50;52.30;;;;;;5045238;28;20033;-61
2021/11/18 00:35:52;;;;;;;2.45;1.30;;;21.50;52.30;;;;;;5036694;28;20040;-59
2021/11/18 00:38:19;;;;;;;2.50;1.30;;;21.50;52.40;;;;;;5040282;28;20092;-60
2021/11/18 00:40:48;;;;;;;2.25;1.05;;;21.40;52.30;;;;;;5033843;28;20040;-58
2021/11/18 00:43:15;;;;;;;2.70;1.20;;;21.40;52.30;;;;;;5037646;28;20025;-59
2021/11/18 00:45:41;;;;;;;1.98;1.10;;;21.40;52.30;;;;;;5039897;28;20041;-61
2021/11/18 00:48:08;;;;;;;2.85;1.20;;;21.40;52.30;;;;;;5037552;28;20038;-57
2021/11/18 00:50:52;;;;;;;2.17;1.00;;;21.40;52.40;;;;;;5035843;28;20116;-59
2021/11/18 00:53:19;;;;;;;1.77;1.02;;;21.40;52.40;;;;;;5041737;28;20102;-59
2021/11/18 00:55:45;;;;;;;2.35;1.20;;;21.40;52.40;;;;;;5036167;28;20029;-61
2021/11/18 00:58:11;;;;;;;2.55;1.20;;;21.40;52.40;;;;;;5029043;28;20083;-59
2021/11/18 01:00:38;;;;;;;3.42;1.60;;;21.40;52.50;;;;;;5035019;28;20736;-60
2021/11/18 01:03:05;;;;;;;2.20;1.10;;;21.40;52.40;;;;;;5037006;28;20032;-59
2021/11/18 01:05:37;;;;;;;2.92;1.20;;;21.30;52.40;;;;;;5041293;28;20425;-58
2021/11/18 01:08:04;;;;;;;2.38;1.10;;;21.30;52.40;;;;;;5035281;28;20033;-60
2021/11/18 01:10:39;;;;;;;2.72;1.27;;;21.30;52.50;;;;;;5036806;28;20458;-60
2021/11/18 01:13:06;;;;;;;2.10;1.05;;;21.30;52.50;;;;;;5031317;28;20033;-59
2021/11/18 01:15:35;;;;;;;2.10;1.15;;;21.30;52.50;;;;;;5036126;28;20067;-58
2021/11/18 01:18:02;;;;;;;2.22;1.25;;;21.30;52.50;;;;;;5039490;28;20083;-59
2021/11/18 01:20:29;;;;;;;1.52;1.00;;;21.30;52.60;;;;;;5036456;28;20112;-60
2021/11/18 01:22:57;;;;;;;2.13;1.17;;;21.20;52.50;;;;;;5033147;28;20120;-61
2021/11/18 01:25:23;;;;;;;2.08;1.30;;;21.30;52.60;;;;;;5030934;28;20060;-59
2021/11/18 01:27:49;;;;;;;2.05;1.10;;;21.20;52.50;;;;;;5033492;28;20744;-60
2021/11/18 01:30:20;;;;;;;3.13;1.25;;;21.20;52.50;;;;;;5035448;28;20033;-60
2021/11/18 01:32:47;;;;;;;2.42;1.50;;;21.20;52.50;;;;;;5033917;28;20102;-58
2021/11/18 01:35:14;;;;;;;2.35;1.10;;;21.20;52.50;;;;;;5039669;28;20039;-58
2021/11/18 01:37:39;;;;;;;2.28;1.20;;;21.20;52.60;;;;;;5034380;28;20188;-59
2021/11/18 01:40:09;;;;;;;2.17;1.40;;;21.20;52.60;;;;;;5037445;28;20061;-59
2021/11/18 01:42:35;;;;;;;;;;;21.20;52.60;;;;;;5041660;28;20121;-60
2021/11/18 01:45:00;;;;;;;1.70;1.00;;;21.20;52.60;;;;;;5042488;28;20004;-60
2021/11/18 01:47:26;;;;;;;1.67;0.90;;;21.20;52.60;;;;;;5036882;28;20475;-60
2021/11/18 01:49:52;;;;;;;2.08;1.20;;;21.10;52.60;;;;;;5030956;28;20029;-53
2021/11/18 01:52:22;;;;;;;3.63;1.17;;;21.10;52.50;;;;;;5041956;28;20204;-58
2021/11/18 01:54:49;;;;;;;1.85;1.02;;;21.10;52.60;;;;;;5032421;28;20409;-58
2021/11/18 01:57:22;;;;;;;1.92;1.20;;;21.10;52.60;;;;;;5033482;28;20037;-61
2021/11/18 01:59:48;;;;;;;2.15;1.13;;;21.10;52.60;;;;;;5033843;28;20099;-62
2021/11/18 02:02:17;;;;;;;2.08;1.08;;;21.10;52.60;;;;;;5036696;28;20087;-58
2021/11/18 02:04:49;;;;;;;1.75;1.10;;;21.10;52.70;;;;;;5040032;28;20052;-54
2021/11/18 02:07:15;;;;;;;1.50;0.90;;;21.10;52.70;;;;;;5045458;28;20039;-58
2021/11/18 02:09:44;;;;;;;2.05;1.10;;;21.00;52.70;;;;;;5035240;28;20056;-59
2021/11/18 02:12:15;;;;;;;1.83;1.15;;;21.00;52.70;;;;;;5038159;28;20028;-60
2021/11/18 02:14:41;;;;;;;1.88;1.13;;;21.10;52.70;;;;;;5032067;28;20041;-58
2021/11/18 02:17:09;;;;;;;1.65;1.00;;;21.00;52.70;;;;;;5034346;28;20432;-60
2021/11/18 02:19:39;;;;;;;1.80;1.10;;;21.00;52.70;;;;;;5039239;28;20135;-57
2021/11/18 02:22:05;;;;;;;1.95;1.10;;;21.00;52.80;;;;;;5038885;28;20025;-57
2021/11/18 02:24:41;;;;;;;2.17;1.23;;;21.00;52.80;;;;;;5031315;28;20063;-61
2021/11/18 02:27:13;;;;;;;2.25;0.98;;;21.00;52.70;;;;;;5039010;28;20025;-55
2021/11/18 02:29:39;;;;;;;1.85;1.00;;;21.00;52.80;;;;;;5033714;28;20051;-62
2021/11/18 02:32:09;;;;;;;1.58;1.10;;;21.00;52.80;;;;;;5039159;28;20057;-59
2021/11/18 02:34:41;;;;;;;1.75;0.93;;;21.00;52.80;;;;;;5040245;28;20090;-59
2021/11/18 02:37:07;;;;;;;2.65;1.20;;;21.00;53.40;;;;;;5034399;28;20025;-58
2021/11/18 02:39:34;;;;;;;2.10;1.08;;;21.00;52.80;;;;;;5033977;28;20580;-59
2021/11/18 02:42:00;;;;;;;1.98;1.00;;;20.90;52.80;;;;;;5037021;28;20126;-58
2021/11/18 02:44:28;;;;;;;1.55;1.05;;;20.90;52.80;;;;;;5037870;28;20066;-57
2021/11/18 02:46:54;;;;;;;2.08;0.93;;;20.90;52.80;;;;;;5033959;28;20483;-59
2021/11/18 02:49:20;;;;;;;1.90;1.00;;;20.90;52.80;;;;;;5030735;28;20025;-57
2021/11/18 02:51:46;;;;;;;2.40;1.00;;;20.90;52.80;;;;;;5033005;28;20039;-57
2021/11/18 02:54:11;;;;;;;2.15;1.27;;;20.90;52.80;;;;;;5037058;28;20036;-59
2021/11/18 02:56:37;;;;;;;1.92;1.25;;;20.90;52.80;;;;;;5035962;28;20040;-59
2021/11/18 02:59:03;;;;;;;2.40;1.10;;;20.90;52.90;;;;;;5036151;28;20044;-58
2021/11/18 03:01:32;;;;;;;2.58;1.00;;;20.90;53.40;;;;;;5029222;28;20062;-58
2021/11/18 03:03:59;;;;;;;1.90;1.00;;;20.90;52.90;;;;;;5036508;28;20024;-59
2021/11/18 03:06:24;;;;;;;1.38;0.90;;;20.90;52.90;;;;;;5034194;28;20151;-56
2021/11/18 03:08:50;;;;;;;2.22;1.02;;;20.90;52.90;;;;;;5037711;28;20147;-59
2021/11/18 03:11:22;;;;;;;1.80;1.00;;;20.90;53.00;;;;;;5035887;28;20040;-58
2021/11/18 03:13:48;;;;;;;2.58;1.00;;;20.80;52.90;;;;;;5040260;28;20029;-56
2021/11/18 03:16:14;;;;;;;1.45;0.90;;;20.90;53.00;;;;;;5038061;28;20029;-58
2021/11/18 03:18:40;;;;;;;1.73;0.95;;;20.80;52.90;;;;;;5043372;28;20029;-61
2021/11/18 03:21:10;;;;;;;2.30;1.17;;;20.80;53.00;;;;;;5029547;28;20606;-58
2021/11/18 03:23:36;;;;;;;;;;;20.80;52.90;;;;;;5038038;28;20045;-62
2021/11/18 03:26:04;;;;;;;1.50;0.90;;;20.80;52.90;;;;;;5030306;28;19909;-61
2021/11/18 03:28:34;;;;;;;1.38;0.90;;;20.80;52.90;;;;;;5033839;28;20124;-59
2021/11/18 03:30:59;;;;;;;;;;;20.80;52.90;;;;;;5039004;28;20101;-58
2021/11/18 03:33:28;;;;;;;1.73;0.90;;;20.80;53.00;;;;;;5040493;28;19913;-60
2021/11/18 03:35:55;;;;;;;1.85;1.00;;;20.80;52.90;;;;;;5038529;28;20033;-60
2021/11/18 03:38:24;;;;;;;1.38;0.90;;;20.80;53.00;;;;;;5042598;28;20378;-60
2021/11/18 03:40:50;;;;;;;1.27;0.90;;;20.80;53.00;;;;;;5032223;28;20040;-59
2021/11/18 03:43:20;;;;;;;1.58;0.90;;;20.80;53.00;;;;;;5033554;28;20029;-58
2021/11/18 03:45:46;;;;;;;1.60;1.10;;;20.80;53.00;;;;;;5041304;28;20083;-59
2021/11/18 03:48:16;;;;;;;1.30;0.90;;;20.80;53.00;;;;;;5051666;28;20044;-60
2021/11/18 03:50:43;;;;;;;1.30;0.85;;;20.70;53.00;;;;;;5040066;28;20036;-61
2021/11/18 03:53:09;;;;;;;1.70;1.00;;;20.70;53.00;;;;;;5043579;28;20087;-58
2021/11/18 03:55:35;;;;;;;2.35;0.95;;;20.70;53.00;;;;;;5040337;28;20045;-59
2021/11/18 03:58:00;;;;;;;1.83;1.10;;;20.70;53.00;;;;;;5032523;28;20389;-59
2021/11/18 04:00:29;;;;;;;1.88;1.00;;;20.70;53.00;;;;;;5045369;28;20134;-60
2021/11/18 04:02:56;;;;;;;1.15;0.85;;;20.70;53.00;;;;;;5045354;28;20123;-61
2021/11/18 04:05:22;;;;;;;1.77;0.98;;;20.70;53.10;;;;;;5043609;28;20055;-60
2021/11/18 04:07:48;;;;;;;1.17;0.90;;;20.70;53.00;;;;;;5048086;28;20088;-57
2021/11/18 04:10:18;;;;;;;1.73;0.90;;;20.70;53.10;;;;;;5041230;28;20701;-59
2021/11/18 04:12:44;;;;;;;0.85;0.70;;;20.70;53.00;;;;;;5034649;28;20130;-60
2021/11/18 04:15:12;;;;;;;1.48;0.90;;;20.70;53.00;;;;;;5045811;28;20028;-58
2021/11/18 04:17:37;;;;;;;1.63;0.90;;;20.70;53.00;;;;;;5037684;28;20037;-58
2021/11/18 04:20:05;;;;;;;1.58;1.00;;;20.70;53.10;;;;;;5044028;28;20538;-60
2021/11/18 04:22:30;;;;;;;1.40;0.90;;;20.70;53.10;;;;;;5038569;28;20140;-58
2021/11/18 04:24:56;;;;;;;1.63;0.90;;;20.70;53.10;;;;;;5036397;28;20766;-61
2021/11/18 04:27:22;;;;;;;1.80;0.98;;;20.70;53.10;;;;;;5037554;28;20113;-58
2021/11/18 04:29:47;;;;;;;1.60;0.90;;;20.70;53.10;;;;;;5047145;28;20050;-56
2021/11/18 04:32:19;;;;;;;2.08;1.05;;;20.70;53.10;;;;;;5035594;28;20080;-58
2021/11/18 04:34:45;;;;;;;1.35;0.82;;;20.60;53.10;;;;;;5034241;28;20815;-57
2021/11/18 04:37:11;;;;;;;1.38;0.88;;;20.60;53.10;;;;;;5038728;28;20033;-58
2021/11/18 04:39:37;;;;;;;1.20;0.80;;;20.60;53.10;;;;;;5043189;28;20038;-61
2021/11/18 04:42:04;;;;;;;1.48;0.90;;;20.60;53.10;;;;;;5034489;28;20499;-59
2021/11/18 04:44:30;;;;;;;0.80;0.80;;;20.60;53.10;;;;;;5039065;28;20195;-59
2021/11/18 04:46:57;;;;;;;1.35;0.80;;;20.60;53.10;;;;;;5040911;28;20211;-61
2021/11/18 04:49:23;;;;;;;1.55;0.80;;;20.60;53.10;;;;;;5033765;28;20033;-56
2021/11/18 04:51:49;;;;;;;1.15;0.80;;;20.60;53.20;;;;;;5037608;28;20851;-59
2021/11/18 04:54:15;;;;;;;1.25;0.80;;;20.60;53.10;;;;;;5038546;28;20510;-59
2021/11/18 04:56:40;;;;;;;1.73;0.90;;;20.60;53.20;;;;;;5036568;28;20067;-59
2021/11/18 04:59:07;;;;;;;1.95;0.80;;;20.60;53.20;;;;;;5037516;28;20033;-59
2021/11/18 05:01:34;;;;;;;1.23;0.85;;;20.60;53.10;;;;;;5032517;28;20172;-59
2021/11/18 05:04:01;;;;;;;2.03;1.00;;;20.60;53.20;;;;;;5041785;28;20058;-59
2021/11/18 05:06:27;;;;;;;1.50;0.80;;;20.60;53.20;;;;;;5037787;28;20073;-59
2021/11/18 05:08:53;;;;;;;1.42;0.80;;;20.60;53.20;;;;;;5028456;28;20139;-60
2021/11/18 05:11:19;;;;;;;1.48;0.80;;;20.60;53.20;;;;;;5042217;28;20104;-59
2021/11/18 05:13:45;;;;;;;2.83;1.10;;;20.60;53.30;;;;;;5033007;28;20836;-61
2021/11/18 05:16:15;;;;;;;2.88;1.00;;;20.60;53.30;;;;;;5035163;28;20018;-60
2021/11/18 05:18:41;;;;;;;1.45;1.00;;;20.60;53.40;;;;;;5036623;28;20029;-61
2021/11/18 05:21:07;;;;;;;2.20;0.80;;;20.60;53.50;;;;;;5043132;28;20049;-58
2021/11/18 05:23:33;;;;;;;1.27;0.90;;;20.60;53.60;;;;;;5034676;28;20508;-58
2021/11/18 05:25:59;;;;;;;2.33;1.10;;;20.60;53.60;;;;;;5040896;28;20112;-60
2021/11/18 05:28:25;;;;;;;1.13;0.80;;;20.50;53.50;;;;;;5039002;28;20034;-58
2021/11/18 05:30:52;;;;;;;1.65;1.10;;;20.60;53.60;;;;;;5034749;28;20041;-56
2021/11/18 05:33:20;;;;;;;1.38;0.88;;;20.60;53.60;;;;;;5042062;28;20572;-58
2021/11/18 05:35:47;;;;;;;2.05;0.82;;;20.60;53.60;;;;;;5036496;28;20086;-56
2021/11/18 05:38:13;;;;;;;2.13;0.93;;;20.60;53.60;;;;;;5042904;28;20599;-60
2021/11/18 05:40:41;;;;;;;1.33;0.75;;;20.60;53.70;;;;;;5032696;28;20104;-58
2021/11/18 05:43:07;;;;;;;1.23;0.90;;;20.60;53.60;;;;;;5034772;28;20024;-60
2021/11/18 05:45:35;;;;;;;1.80;0.90;;;20.50;53.60;;;;;;5032502;28;20029;-58
2021/11/18 05:48:03;;;;;;;1.48;0.90;;;20.60;53.70;;;;;;5035309;28;20090;-57
2021/11/18 05:50:30;;;;;;;1.58;0.90;;;20.50;53.60;;;;;;5034925;28;20045;-60
2021/11/18 05:52:56;;;;;;;1.67;1.00;;;20.50;53.70;;;;;;5038139;28;20504;-59
2021/11/18 05:55:25;;;;;;;1.70;0.90;;;20.50;53.70;;;;;;5028700;28;20038;-59
2021/11/18 05:57:51;;;;;;;;;;;20.50;53.70;;;;;;5037683;28;20060;-59
2021/11/18 06:00:22;;;;;;;1.30;0.77;;;20.50;53.70;;;;;;5038391;28;19988;-59
2021/11/18 06:02:48;;;;;;;1.70;0.90;;;20.50;53.70;;;;;;5030116;28;20045;-57
2021/11/18 06:05:16;;;;;;;1.17;0.80;;;20.50;53.70;;;;;;5032706;28;20030;-57
2021/11/18 06:07:42;;;;;;;1.63;0.90;;;20.50;53.70;;;;;;5038167;28;20116;-59
2021/11/18 06:10:10;;;;;;;1.92;1.17;;;20.50;53.70;;;;;;5024456;28;20061;-60
2021/11/18 06:12:37;;;;;;;1.67;0.98;;;20.50;53.80;;;;;;5034249;28;20049;-60
2021/11/18 06:15:03;;;;;;;1.55;0.88;;;20.50;53.80;;;;;;5034607;28;20025;-57
2021/11/18 06:17:28;;;;;;;1.58;0.77;;;20.50;53.80;;;;;;5035452;28;20032;-58
2021/11/18 06:19:54;;;;;;;1.35;0.90;;;20.50;53.80;;;;;;5035252;28;20083;-58
2021/11/18 06:22:24;;;;;;;2.47;1.05;;;20.50;53.80;;;;;;5028701;28;20103;-59
2021/11/18 06:24:51;;;;;;;1.75;0.93;;;20.60;55.10;;;;;;5032661;28;20413;-59
2021/11/18 06:27:17;;;;;;;1.67;0.90;;;20.80;55.30;;;;;;5032841;28;20021;-59
2021/11/18 06:29:43;;;;;;;2.08;0.98;;;21.00;54.80;;;;;;5045849;28;20029;-59
2021/11/18 06:32:09;;;;;;;1.30;0.82;;;21.10;54.80;;;;;;5038095;28;20039;-58
2021/11/18 06:34:37;;;;;;;1.33;0.70;;;21.20;54.80;;;;;;5039122;28;20841;-59
2021/11/18 06:37:04;;;;;;;2.47;0.95;;;21.30;54.80;;;;;;5036228;28;20025;-59
2021/11/18 06:39:31;;;;;;;1.40;0.70;;;21.40;54.60;;;;;;5036141;28;20045;-59
2021/11/18 06:42:00;;;;;;;2.03;0.93;;;21.50;54.50;;;;;;5034379;28;20033;-59
2021/11/18 06:44:26;;;;;;;1.73;0.80;;;21.60;54.50;;;;;;5041714;28;20029;-58
2021/11/18 06:46:51;;;;;;;1.17;0.70;;;21.80;54.60;;;;;;5031035;28;20573;-59
2021/11/18 06:49:17;;;;;;;2.15;0.80;;;21.90;54.50;;;;;;5038387;28;20025;-58
2021/11/18 06:51:43;;;;;;;1.58;0.80;;;22.00;54.50;;;;;;5040287;28;20528;-59
2021/11/18 06:54:11;;;;;;;1.63;0.85;;;22.10;54.40;;;;;;5037222;28;20041;-57
2021/11/18 06:56:38;;;;;;;1.58;0.90;;;22.30;54.40;;;;;;5033438;28;20448;-58
2021/11/18 06:59:04;;;;;;;1.05;0.80;;;22.40;54.40;;;;;;5037144;28;20028;-59
2021/11/18 07:01:30;;;;;;;1.48;0.70;;;22.70;54.40;;;;;;5032392;28;20060;-59
2021/11/18 07:03:56;;;;;;;1.33;0.80;;;23.00;54.00;;;;;;5036435;28;20444;-59
2021/11/18 07:06:25;;;;;;;1.55;0.80;;;23.20;53.60;;;;;;5042235;28;20043;-58
2021/11/18 07:08:51;;;;;;;1.23;0.77;;;23.40;53.20;;;;;;5036017;28;20091;-57
2021/11/18 07:11:19;;;;;;;1.30;0.90;;;23.60;53.00;;;;;;5034539;28;20068;-59
2021/11/18 07:13:44;;;;;;;2.08;0.70;;;23.80;52.70;;;;;;5038565;28;20114;-58
2021/11/18 07:16:13;;;;;;;0.73;0.52;;;24.00;52.40;;;;;;5030699;28;20038;-59
2021/11/18 07:18:40;;;;;;;0.63;0.50;;;24.00;52.10;;;;;;5041496;28;20025;-59
2021/11/18 07:21:05;;;;;;;0.93;0.60;;;23.90;52.20;;;;;;5030705;28;20187;-59
2021/11/18 07:23:32;;;;;;;1.00;0.68;;;23.70;52.50;;;;;;5043021;28;20112;-56
2021/11/18 07:26:00;;;;;;;1.30;0.60;;;23.70;52.70;;;;;;5035315;28;20074;-59
2021/11/18 07:28:28;;;;;;;0.88;0.63;;;23.70;52.70;;;;;;5036775;28;20036;-59
2021/11/18 07:30:54;;;;;;;0.85;0.55;;;23.60;52.80;;;;;;5028761;28;20537;-59
2021/11/18 07:33:22;;;;;;;1.15;0.70;;;23.60;52.90;;;;;;5037428;28;20032;-61
2021/11/18 07:35:50;;;;;;;1.00;0.68;;;23.60;52.70;;;;;;5037997;28;20025;-59
2021/11/18 07:38:17;;;;;;;1.20;0.70;;;23.60;51.50;;;;;;5044797;28;20043;-60
2021/11/18 07:40:43;;;;;;;2.13;0.98;;;23.50;51.60;;;;;;5028587;28;20450;-59
2021/11/18 07:43:12;;;;;;;1.33;0.80;;;23.50;51.80;;;;;;5036149;28;20043;-59
2021/11/18 07:45:37;;;;;;;0.98;0.70;;;23.50;51.90;;;;;;5058563;28;20144;-59
2021/11/18 07:48:03;;;;;;;1.20;0.80;;;23.60;52.20;;;;;;5037889;28;20108;-57
2021/11/18 07:50:30;;;;;;;1.30;0.70;;;23.60;52.20;;;;;;5031424;28;20034;-58
2021/11/18 07:52:57;;;;;;;1.00;0.70;;;23.60;52.30;;;;;;5051090;28;20188;-58
2021/11/18 07:55:23;;;;;;;0.77;0.57;;;23.60;52.30;;;;;;5032432;28;20060;-58
2021/11/18 07:57:49;;;;;;;1.65;0.77;;;23.60;52.30;;;;;;5039718;28;20033;-59
2021/11/18 08:00:22;;;;;;;0.90;0.70;;;23.60;52.40;;;;;;5035604;28;20036;-59
2021/11/18 08:02:47;;;;;;;1.58;0.90;;;23.70;52.60;;;;;;5031994;28;20036;-59
2021/11/18 08:05:15;;;;;;;2.65;0.90;;;23.60;52.60;;;;;;5031828;28;20025;-60
2021/11/18 08:07:42;;;;;;;0.95;0.70;;;23.70;52.60;;;;;;5040567;28;20116;-59
2021/11/18 08:10:10;;;;;;;0.88;0.60;;;23.70;52.70;;;;;;5030519;28;20508;-58
2021/11/18 08:12:36;;;;;;;1.23;0.70;;;23.70;52.70;;;;;;5032646;28;20045;-60
2021/11/18 08:15:08;;;;;;;1.00;0.63;;;23.70;52.90;;;;;;5032978;28;20037;-57
2021/11/18 08:17:33;;;;;;;1.77;0.70;;;23.70;52.80;;;;;;5034467;28;20585;-59
2021/11/18 08:19:59;;;;;;;1.08;0.60;;;23.70;52.90;;;;;;5036138;28;20071;-58
2021/11/18 08:22:26;;;;;;;1.15;0.60;;;23.70;52.90;;;;;;5039077;28;20140;-60
2021/11/18 08:24:52;;;;;;;1.38;0.60;;;23.80;53.00;;;;;;5040657;28;20041;-55
2021/11/18 08:27:18;;;;;;;0.60;0.60;;;23.80;53.40;;;;;;5032911;28;20053;-59
2021/11/18 08:29:44;;;;;;;0.82;0.70;;;23.80;53.80;;;;;;5039430;28;20083;-58
2021/11/18 08:32:10;;;;;;;0.68;0.52;;;23.80;53.30;;;;;;5033890;28;20733;-59
2021/11/18 08:34:36;;;;;;;1.70;0.70;;;23.80;53.90;;;;;;5038989;28;20108;-59
2021/11/18 08:37:02;;;;;;;0.93;0.70;;;23.90;53.40;;;;;;5040894;28;20120;-59
2021/11/18 08:39:30;;;;;;;1.25;0.77;;;23.80;53.40;;;;;;5035343;28;20042;-59
2021/11/18 08:42:04;;;;;;;1.50;0.70;;;23.90;53.40;;;;;;5040461;28;20775;-58
2021/11/18 08:44:33;;;;;;;1.13;0.60;;;23.90;53.50;;;;;;5045473;28;20036;-59
2021/11/18 08:46:59;;;;;;;1.55;0.70;;;23.80;53.40;;;;;;5036786;28;20045;-57
2021/11/18 08:49:25;;;;;;;0.93;0.70;;;23.90;53.50;;;;;;5041125;28;20024;-59
2021/11/18 08:51:52;;;;;;;0.90;0.60;;;23.90;53.40;;;;;;5037480;28;20057;-60
2021/11/18 08:54:22;;;;;;;1.23;0.80;;;23.90;53.50;;;;;;5033933;28;20795;-60
2021/11/18 08:56:50;;;;;;;0.75;0.63;;;23.90;53.60;;;;;;5035905;28;20037;-59
2021/11/18 08:59:16;;;;;;;1.20;0.68;;;23.90;53.90;;;;;;5039466;28;20041;-59
2021/11/18 09:01:45;;;;;;;1.42;0.70;;;23.90;53.50;;;;;;5037869;28;20052;-58
2021/11/18 09:04:23;;;;;;;0.65;0.60;;;23.90;53.80;;;;;;5033041;28;20149;-57
2021/11/18 09:06:49;;;;;;;2.25;0.80;;;23.90;53.80;;;;;;5031513;28;20037;-59
2021/11/18 09:09:17;;;;;;;0.98;0.60;;;24.00;53.90;;;;;;5032831;28;20032;-60
2021/11/18 09:11:45;;;;;;;0.82;0.60;;;23.90;53.90;;;;;;5040732;28;20681;-60
2021/11/18 09:14:11;;;;;;;1.15;0.65;;;24.00;53.70;;;;;;5031979;28;20032;-58
2021/11/18 09:16:39;;;;;;;1.77;0.60;;;24.00;53.60;;;;;;5034740;28;20030;-58
2021/11/18 09:19:08;;;;;;;1.20;0.70;;;24.00;53.80;;;;;;5036491;28;20065;-57
2021/11/18 09:21:35;;;;;;;0.50;0.50;;;24.00;53.50;;;;;;5037834;28;20095;-60
2021/11/18 09:24:18;;;;;;;0.70;0.50;;;24.00;54.10;;;;;;5037136;28;20031;-59
2021/11/18 09:26:48;;;;;;;0.73;0.60;;;24.10;53.90;;;;;;5036719;28;20040;-60
2021/11/18 09:29:15;;;;;;;1.20;0.60;;;24.10;54.10;;;;;;5042583;28;20060;-60
2021/11/18 09:31:42;;;;;;;1.92;0.60;;;24.10;54.10;;;;;;5036807;28;20053;-56
2021/11/18 09:34:08;;;;;;;0.55;0.55;;;24.10;54.60;;;;;;5034805;28;20076;-61
2021/11/18 09:36:34;;;;;;;1.23;0.70;;;24.10;54.30;;;;;;5030261;28;20033;-59
2021/11/18 09:39:01;;;;;;;0.85;0.52;;;24.10;54.10;;;;;;5034155;28;20032;-59
2021/11/18 09:41:27;;;;;;;1.50;0.70;;;24.10;54.40;;;;;;5038038;28;20449;-59
2021/11/18 09:44:14;;;;;;;0.90;0.65;;;24.10;55.00;;;;;;5042029;28;20029;-59
2021/11/18 09:46:52;;;;;;;1.10;0.70;;;24.20;54.50;;;;;;5040985;28;20112;-60
2021/11/18 09:49:43;;;;;;;0.93;0.60;;;24.20;54.40;;;;;;5039583;28;20033;-57
2021/11/18 09:52:34;;;;;;;1.10;0.57;;;24.20;54.60;;;;;;5032267;28;20166;-59
2021/11/18 09:55:03;;;;;;;0.85;0.60;;;24.20;55.20;;;;;;5035221;28;20037;-59
2021/11/18 09:57:53;;;;;;;1.45;0.70;;;24.30;55.20;;;;;;5042020;28;20024;-59
2021/11/18 10:00:37;;;;;;;1.40;0.70;;;24.30;54.50;;;;;;5032812;28;20064;-56
2021/11/18 10:03:44;;;;;;;0.77;0.57;;;24.30;55.10;;;;;;5033303;28;20026;-58
2021/11/18 10:06:16;;;;;;;0.93;0.60;;;24.30;55.30;;;;;;5036973;28;20124;-58
2021/11/18 10:08:48;;;;;;;0.57;0.50;;;24.30;54.40;;;;;;5034605;28;20128;-58
2021/11/18 10:11:30;;;;;;;1.85;0.93;;;24.30;53.50;;;;;;5038021;28;20043;-59
2021/11/18 10:14:24;;;;;;;1.52;1.00;;;24.20;52.80;;;;;;5033516;28;20112;-59
2021/11/18 10:16:57;;;;;;;1.20;0.90;;;24.20;52.30;;;;;;5041435;28;20032;-58
2021/11/18 10:19:30;;;;;;;1.38;1.00;;;24.10;51.70;;;;;;5065095;28;20021;-58
2021/11/18 10:21:58;;;;;;;1.88;1.30;;;24.10;51.40;;;;;;5032167;28;20480;-59
2021/11/18 10:24:27;;;;;;;1.63;1.10;;;24.10;51.60;;;;;;5037580;28;20025;-60
2021/11/18 10:27:00;;;;;;;2.08;1.17;;;24.10;50.90;;;;;;5044710;28;20060;-60
2021/11/18 10:29:32;;;;;;;2.72;1.73;;;24.10;50.50;;;;;;5036989;28;20109;-59
2021/11/18 10:32:07;;;;;;;3.05;1.90;;;24.10;48.00;;;;;;5039638;28;20048;-59
2021/11/18 10:34:49;;;;;;;2.90;2.08;;;24.00;47.10;;;;;;5039875;28;20041;-59
2021/11/18 10:37:26;;;;;;;2.80;2.20;;;24.00;45.30;;;;;;5037727;28;20022;-59
2021/11/18 10:39:52;;;;;;;2.67;2.10;;;24.00;43.50;;;;;;5043987;28;20124;-57
2021/11/18 10:42:49;;;;;;;2.33;1.90;;;23.90;42.70;;;;;;5032593;28;20385;-59
2021/11/18 10:45:26;;;;;;;2.13;1.60;;;23.80;42.60;;;;;;5038508;28;20044;-58
2021/11/18 10:47:52;;;;;;;3.30;2.00;;;23.70;42.50;;;;;;5037793;28;20071;-58
2021/11/18 10:50:26;;;;;;;2.38;1.60;;;23.70;41.50;;;;;;5036291;28;20030;-59
2021/11/18 10:53:26;;;;;;;2.88;1.83;;;23.70;42.10;;;;;;5055237;28;20063;-59
2021/11/18 10:56:04;;;;;;;3.15;1.92;;;23.60;39.80;;;;;;5029787;28;20045;-58
2021/11/18 10:58:41;;;;;;;2.67;1.80;;;23.50;40.10;;;;;;5051443;28;20104;-58
2021/11/18 11:01:28;;;;;;;2.78;1.90;;;23.40;40.20;;;;;;5041048;28;20029;-58
2021/11/18 11:03:57;;;;;;;2.67;1.77;;;23.30;40.60;;;;;;5038556;28;20089;-60
2021/11/18 11:06:28;;;;;;;2.65;1.70;;;23.30;41.70;;;;;;5039089;28;20485;-58
2021/11/18 11:09:09;;;;;;;3.38;2.10;;;23.30;42.60;;;;;;5041360;28;20497;-56
2021/11/18 11:11:54;;;;;;;3.58;2.13;;;23.10;39.90;;;;;;5037934;28;20107;-59
2021/11/18 11:14:46;;;;;;;3.05;2.17;;;22.90;41.50;;;;;;5037973;28;20064;-59
2021/11/18 11:17:33;;;;;;;2.95;2.20;;;22.80;40.10;;;;;;5040810;28;20017;-58
2021/11/18 11:20:29;;;;;;;2.17;1.60;;;22.60;40.80;;;;;;5036935;28;20362;-59
2021/11/18 11:23:23;;;;;;;2.15;1.48;;;22.50;43.50;;;;;;5033739;28;20437;-55
2021/11/18 11:26:00;;;;;;;1.77;1.10;;;22.60;46.00;;;;;;5030538;28;20393;-59
2021/11/18 11:28:28;;;;;;;1.65;0.90;;;22.70;46.60;;;;;;5039298;28;20087;-55
2021/11/18 11:31:29;;;;;;;3.25;1.10;;;22.80;47.10;;;;;;5047563;28;20064;-58
2021/11/18 11:34:18;;;;;;;1.52;0.90;;;22.80;47.30;;;;;;5034211;28;20041;-59
2021/11/18 11:36:48;;;;;;;1.23;0.90;;;22.90;47.50;;;;;;5042794;28;20033;-59
2021/11/18 11:39:47;;;;;;;1.85;1.13;;;22.90;47.60;;;;;;5042832;28;20342;-59
2021/11/18 11:42:43;;;;;;;1.50;1.00;;;22.90;47.80;;;;;;5049527;28;20567;-59
2021/11/18 11:45:15;;;;;;;1.80;1.00;;;22.90;47.90;;;;;;5042914;28;20477;-59
2021/11/18 11:48:09;;;;;;;2.75;1.00;;;22.90;48.00;;;;;;5042299;28;20131;-59
2021/11/18 11:50:48;;;;;;;1.90;1.10;;;22.90;48.20;;;;;;5018231;28;20046;-58
2021/11/18 11:53:29;;;;;;;1.40;0.90;;;22.90;48.30;;;;;;5032787;28;20036;-58
2021/11/18 11:56:02;;;;;;;1.50;0.90;;;22.90;48.40;;;;;;5037219;28;20043;-59
2021/11/18 11:58:36;;;;;;;1.60;1.00;;;22.90;48.40;;;;;;5031848;28;20040;-57
2021/11/18 12:01:30;;;;;;;2.08;1.10;;;22.90;48.60;;;;;;5032952;28;20049;-59
2021/11/18 12:04:22;;;;;;;1.70;1.00;;;22.90;48.60;;;;;;5028660;28;20164;-58
2021/11/18 12:07:21;;;;;;;1.80;1.02;;;23.00;48.70;;;;;;5037996;28;20753;-58
2021/11/18 12:10:21;;;;;;;1.52;0.90;;;22.90;48.50;;;;;;5034217;28;20068;-59
2021/11/18 12:12:59;;;;;;;1.80;1.10;;;22.90;48.50;;;;;;5035930;28;20041;-59
2021/11/18 12:15:25;;;;;;;1.58;0.90;;;22.90;48.60;;;;;;5037186;28;20029;-59
2021/11/18 12:17:57;;;;;;;1.85;1.15;;;22.90;48.60;;;;;;5038476;28;20105;-57
2021/11/18 12:20:29;;;;;;;1.60;1.20;;;22.90;48.60;;;;;;5041509;28;20105;-59
2021/11/18 12:23:04;;;;;;;1.92;1.10;;;22.90;48.60;;;;;;5035485;28;20469;-59
2021/11/18 12:25:45;;;;;;;1.75;1.00;;;22.90;48.60;;;;;;5032657;28;20032;-60
2021/11/18 12:28:11;;;;;;;1.90;1.05;;;22.90;48.60;;;;;;5035934;28;20117;-59
2021/11/18 12:31:04;;;;;;;1.95;1.08;;;22.90;48.70;;;;;;5039366;28;20781;-59
2021/11/18 12:33:36;;;;;;;0.88;0.70;;;22.90;48.90;;;;;;5053486;28;20095;-59
2021/11/18 12:36:36;;;;;;;1.35;0.98;;;22.90;49.10;;;;;;5034281;28;20049;-59
2021/11/18 12:39:44;;;;;;;1.52;0.98;;;22.90;49.60;;;;;;5013196;28;20123;-60
2021/11/18 12:42:26;;;;;;;0.90;0.70;;;23.00;50.30;;;;;;5033546;28;20424;-60
2021/11/18 12:45:05;;;;;;;1.92;0.70;;;23.00;50.40;;;;;;5033982;28;20049;-57
2021/11/18 12:47:49;;;;;;;1.55;0.85;;;23.10;50.70;;;;;;5038807;28;20035;-59
2021/11/18 12:50:35;;;;;;;1.15;0.70;;;23.10;50.60;;;;;;5037616;28;20029;-59
2021/11/18 12:53:12;;;;;;;0.85;0.70;;;23.10;50.70;;;;;;5035778;28;20392;-59
2021/11/18 12:56:05;;;;;;;1.05;0.70;;;23.10;50.60;;;;;;5033168;28;20047;-57
2021/11/18 12:58:40;;;;;;;1.15;0.80;;;23.10;50.80;;;;;;5038189;28;20128;-58
2021/11/18 13:01:21;;;;;;;0.98;0.80;;;23.10;50.90;;;;;;5032359;28;20041;-59
2021/11/18 13:03:46;;;;;;;1.02;0.77;;;23.20;51.10;;;;;;5037910;28;20484;-57
2021/11/18 13:06:32;;;;;;;1.08;0.77;;;23.20;51.20;;;;;;5038637;28;20044;-59